createdAt,value
2018-08-11T00:00:01.055Z,1.85
2018-08-11T00:00:13.588Z,1.85
2018-08-11T00:00:26.212Z,1.85
2018-08-11T00:00:38.754Z,1.85
2018-08-11T00:00:51.287Z,1.85
2018-08-11T00:01:03.825Z,1.85
2018-08-11T00:01:16.345Z,1.85
2018-08-11T00:01:28.866Z,1.85
2018-08-11T00:01:41.391Z,1.85
2018-08-11T00:01:53.898Z,1.85
2018-08-11T00:02:06.427Z,1.85
2018-08-11T00:02:18.985Z,1.85
2018-08-11T00:02:31.657Z,1.85
2018-08-11T00:02:44.181Z,1.85
2018-08-11T00:02:56.718Z,1.85
2018-08-11T00:03:09.280Z,1.85
2018-08-11T00:03:21.792Z,1.85
2018-08-11T00:03:34.316Z,1.85
2018-08-11T00:03:46.825Z,1.85
2018-08-11T00:03:59.337Z,1.85
2018-08-11T00:04:11.944Z,1.85
2018-08-11T00:04:24.461Z,1.85
2018-08-11T00:04:36.961Z,1.85
2018-08-11T00:04:49.483Z,1.85
2018-08-11T00:05:02.020Z,1.85
2018-08-11T00:05:14.545Z,1.85
2018-08-11T00:05:27.077Z,1.85
2018-08-11T00:05:39.606Z,1.85
2018-08-11T00:05:52.130Z,1.85
2018-08-11T00:06:04.725Z,1.85
2018-08-11T00:06:17.238Z,1.85
2018-08-11T00:06:29.807Z,1.85
2018-08-11T00:06:42.319Z,1.85
2018-08-11T00:06:54.849Z,1.85
2018-08-11T00:07:07.365Z,1.85
2018-08-11T00:07:19.878Z,1.85
2018-08-11T00:07:32.401Z,1.85
2018-08-11T00:07:44.911Z,1.85
2018-08-11T00:07:57.497Z,1.85
2018-08-11T00:08:10.041Z,1.6
2018-08-11T00:08:22.562Z,1.6
2018-08-11T00:08:35.071Z,1.6
2018-08-11T00:08:47.744Z,1.6
2018-08-11T00:09:00.423Z,1.6
2018-08-11T00:09:12.950Z,1.6
2018-08-11T00:09:25.496Z,1.6
2018-08-11T00:09:38.017Z,1.6
2018-08-11T00:09:50.531Z,1.6
2018-08-11T00:10:03.066Z,1.6
2018-08-11T00:10:15.601Z,1.6
2018-08-11T00:10:28.131Z,1.6
2018-08-11T00:10:40.641Z,1.6
2018-08-11T00:10:53.160Z,1.6
2018-08-11T00:11:05.674Z,1.6
2018-08-11T00:11:18.180Z,1.6
2018-08-11T00:11:30.698Z,1.6
2018-08-11T00:11:43.224Z,1.6
2018-08-11T00:11:55.772Z,1.6
2018-08-11T00:12:08.324Z,1.6
2018-08-11T00:12:20.853Z,1.6
2018-08-11T00:12:33.407Z,1.6
2018-08-11T00:12:45.943Z,1.6
2018-08-11T00:12:58.463Z,1.6
2018-08-11T00:13:10.983Z,1.6
2018-08-11T00:13:23.517Z,1.6
2018-08-11T00:13:36.058Z,1.6
2018-08-11T00:13:48.562Z,1.6
2018-08-11T00:14:01.128Z,1.6
2018-08-11T00:14:13.645Z,1.6
2018-08-11T00:14:26.178Z,1.6
2018-08-11T00:14:38.680Z,1.6
2018-08-11T00:14:51.199Z,1.6
2018-08-11T00:15:03.707Z,1.6
2018-08-11T00:15:16.257Z,1.6
2018-08-11T00:15:28.836Z,1.6
2018-08-11T00:15:41.374Z,1.6
2018-08-11T00:15:53.894Z,1.6
2018-08-11T00:16:06.412Z,1.6
2018-08-11T00:16:18.931Z,1.6
2018-08-11T00:16:31.445Z,1.6
2018-08-11T00:16:43.950Z,1.6
2018-08-11T00:16:56.464Z,1.6
2018-08-11T00:17:08.958Z,1.6
2018-08-11T00:17:21.456Z,1.6
2018-08-11T00:17:33.957Z,1.6
2018-08-11T00:17:46.479Z,1.6
2018-08-11T00:17:58.987Z,1.6
2018-08-11T00:18:11.486Z,2.05
2018-08-11T00:18:24.044Z,2.05
2018-08-11T00:18:36.553Z,2.05
2018-08-11T00:18:49.066Z,2.05
2018-08-11T00:19:01.599Z,2.05
2018-08-11T00:19:14.124Z,2.05
2018-08-11T00:19:26.632Z,2.05
2018-08-11T00:19:39.124Z,2.05
2018-08-11T00:19:51.627Z,2.05
2018-08-11T00:20:04.159Z,2.05
2018-08-11T00:20:16.656Z,2.05
2018-08-11T00:20:29.177Z,2.05
2018-08-11T00:20:41.789Z,2.05
2018-08-11T00:20:54.322Z,2.05
2018-08-11T00:21:06.879Z,2.05
2018-08-11T00:21:19.392Z,2.05
2018-08-11T00:21:31.907Z,2.05
2018-08-11T00:21:44.432Z,2.05
2018-08-11T00:21:56.936Z,2.05
2018-08-11T00:22:09.608Z,2.05
2018-08-11T00:22:22.115Z,2.05
2018-08-11T00:22:34.625Z,2.05
2018-08-11T00:22:47.136Z,2.05
2018-08-11T00:22:59.657Z,2.05
2018-08-11T00:23:12.376Z,2.05
2018-08-11T00:23:24.907Z,2.05
2018-08-11T00:23:37.417Z,2.05
2018-08-11T00:23:49.946Z,2.05
2018-08-11T00:24:02.459Z,2.05
2018-08-11T00:24:14.975Z,2.05
2018-08-11T00:24:27.500Z,2.05
2018-08-11T00:24:40.013Z,2.05
2018-08-11T00:24:52.524Z,2.05
2018-08-11T00:25:05.042Z,2.05
2018-08-11T00:25:17.564Z,2.05
2018-08-11T00:25:30.096Z,2.05
2018-08-11T00:25:42.614Z,2.05
2018-08-11T00:25:55.252Z,2.05
2018-08-11T00:26:07.788Z,2.05
2018-08-11T00:26:20.289Z,2.05
2018-08-11T00:26:32.798Z,2.05
2018-08-11T00:26:45.309Z,2.05
2018-08-11T00:26:57.814Z,2.05
2018-08-11T00:27:10.619Z,2.05
2018-08-11T00:27:23.147Z,2.05
2018-08-11T00:27:35.661Z,2.05
2018-08-11T00:27:48.190Z,2.05
2018-08-11T00:28:00.754Z,2.05
2018-08-11T00:28:13.268Z,1.7
2018-08-11T00:28:25.789Z,1.7
2018-08-11T00:28:38.306Z,1.7
2018-08-11T00:28:50.991Z,1.7
2018-08-11T00:29:03.504Z,1.7
2018-08-11T00:29:16.041Z,1.7
2018-08-11T00:29:28.837Z,1.7
2018-08-11T00:29:41.397Z,1.7
2018-08-11T00:29:53.910Z,1.7
2018-08-11T00:30:06.427Z,1.7
2018-08-11T00:30:18.934Z,1.7
2018-08-11T00:30:31.465Z,1.7
2018-08-11T00:30:44.039Z,1.7
2018-08-11T00:30:56.574Z,1.7
2018-08-11T00:31:09.081Z,1.7
2018-08-11T00:31:21.596Z,1.7
2018-08-11T00:31:34.110Z,1.7
2018-08-11T00:31:46.617Z,1.7
2018-08-11T00:31:59.136Z,1.7
2018-08-11T00:32:11.652Z,1.7
2018-08-11T00:32:24.174Z,1.7
2018-08-11T00:32:36.865Z,1.7
2018-08-11T00:32:49.371Z,1.7
2018-08-11T00:33:01.867Z,1.7
2018-08-11T00:33:14.363Z,1.7
2018-08-11T00:33:26.870Z,1.7
2018-08-11T00:33:39.377Z,1.7
2018-08-11T00:33:51.901Z,1.7
2018-08-11T00:34:04.417Z,1.7
2018-08-11T00:34:16.928Z,1.7
2018-08-11T00:34:29.465Z,1.7
2018-08-11T00:34:41.985Z,1.7
2018-08-11T00:34:54.495Z,1.7
2018-08-11T00:35:06.988Z,1.7
2018-08-11T00:35:19.516Z,1.7
2018-08-11T00:35:32.091Z,1.7
2018-08-11T00:35:44.582Z,1.7
2018-08-11T00:35:57.094Z,1.7
2018-08-11T00:36:09.602Z,1.7
2018-08-11T00:36:22.311Z,1.7
2018-08-11T00:36:35.969Z,1.7
2018-08-11T00:36:48.582Z,1.7
2018-08-11T00:37:01.110Z,1.7
2018-08-11T00:37:13.621Z,1.7
2018-08-11T00:37:26.298Z,1.7
2018-08-11T00:37:38.847Z,1.7
2018-08-11T00:37:51.362Z,1.7
2018-08-11T00:38:03.887Z,1.7
2018-08-11T00:38:16.396Z,1.67
2018-08-11T00:38:28.947Z,1.67
2018-08-11T00:38:41.489Z,1.67
2018-08-11T00:38:54.003Z,1.67
2018-08-11T00:39:06.546Z,1.67
2018-08-11T00:39:19.061Z,1.67
2018-08-11T00:39:31.792Z,1.67
2018-08-11T00:39:44.321Z,1.67
2018-08-11T00:39:56.825Z,1.67
2018-08-11T00:40:09.362Z,1.67
2018-08-11T00:40:21.931Z,1.67
2018-08-11T00:40:34.431Z,1.67
2018-08-11T00:40:46.946Z,1.67
2018-08-11T00:40:59.455Z,1.67
2018-08-11T00:41:11.962Z,1.67
2018-08-11T00:41:24.468Z,1.67
2018-08-11T00:41:36.987Z,1.67
2018-08-11T00:41:49.477Z,1.67
2018-08-11T00:42:02.000Z,1.67
2018-08-11T00:42:14.589Z,1.67
2018-08-11T00:42:27.098Z,1.67
2018-08-11T00:42:39.668Z,1.67
2018-08-11T00:42:52.243Z,1.67
2018-08-11T00:43:04.796Z,1.67
2018-08-11T00:43:17.301Z,1.67
2018-08-11T00:43:29.832Z,1.67
2018-08-11T00:43:42.345Z,1.67
2018-08-11T00:43:54.866Z,1.67
2018-08-11T00:44:07.385Z,1.67
2018-08-11T00:44:19.912Z,1.67
2018-08-11T00:44:32.656Z,1.67
2018-08-11T00:44:45.177Z,1.67
2018-08-11T00:44:57.681Z,1.67
2018-08-11T00:45:10.213Z,1.67
2018-08-11T00:45:22.737Z,1.67
2018-08-11T00:45:35.264Z,1.67
2018-08-11T00:45:47.797Z,1.67
2018-08-11T00:46:00.304Z,1.67
2018-08-11T00:46:12.829Z,1.67
2018-08-11T00:46:25.344Z,1.67
2018-08-11T00:46:37.862Z,1.67
2018-08-11T00:46:50.395Z,1.67
2018-08-11T00:47:02.909Z,1.67
2018-08-11T00:47:15.417Z,1.67
2018-08-11T00:47:27.930Z,1.67
2018-08-11T00:47:40.495Z,1.67
2018-08-11T00:47:52.993Z,1.67
2018-08-11T00:48:05.494Z,1.67
2018-08-11T00:48:18.032Z,1.48
2018-08-11T00:48:30.566Z,1.48
2018-08-11T00:48:43.066Z,1.48
2018-08-11T00:48:55.575Z,1.48
2018-08-11T00:49:08.258Z,1.48
2018-08-11T00:49:21.066Z,1.48
2018-08-11T00:49:34.745Z,1.48
2018-08-11T00:49:47.528Z,1.48
2018-08-11T00:50:00.071Z,1.48
2018-08-11T00:50:12.598Z,1.48
2018-08-11T00:50:25.139Z,1.48
2018-08-11T00:50:37.654Z,1.48
2018-08-11T00:50:50.196Z,1.48
2018-08-11T00:51:02.720Z,1.48
2018-08-11T00:51:15.227Z,1.48
2018-08-11T00:51:27.729Z,1.48
2018-08-11T00:51:40.415Z,1.48
2018-08-11T00:51:52.927Z,1.48
2018-08-11T00:52:05.445Z,1.48
2018-08-11T00:52:17.956Z,1.48
2018-08-11T00:52:30.513Z,1.48
2018-08-11T00:52:43.053Z,1.48
2018-08-11T00:52:55.591Z,1.48
2018-08-11T00:53:08.095Z,1.48
2018-08-11T00:53:20.675Z,1.48
2018-08-11T00:53:33.173Z,1.48
2018-08-11T00:53:45.687Z,1.48
2018-08-11T00:53:58.332Z,1.48
2018-08-11T00:54:10.855Z,1.48
2018-08-11T00:54:23.375Z,1.48
2018-08-11T00:54:35.878Z,1.48
2018-08-11T00:54:48.396Z,1.48
2018-08-11T00:55:00.889Z,1.48
2018-08-11T00:55:13.437Z,1.48
2018-08-11T00:55:25.970Z,1.48
2018-08-11T00:55:38.504Z,1.48
2018-08-11T00:55:51.055Z,1.48
2018-08-11T00:56:03.568Z,1.48
2018-08-11T00:56:16.077Z,1.48
2018-08-11T00:56:28.600Z,1.48
2018-08-11T00:56:41.103Z,1.48
2018-08-11T00:56:53.617Z,1.48
2018-08-11T00:57:06.110Z,1.48
2018-08-11T00:57:18.970Z,1.48
2018-08-11T00:57:31.529Z,1.48
2018-08-11T00:57:44.042Z,1.48
2018-08-11T00:57:56.562Z,1.48
2018-08-11T00:58:09.081Z,1.67
2018-08-11T00:58:21.596Z,1.67
2018-08-11T00:58:34.102Z,1.67
2018-08-11T00:58:46.606Z,1.67
2018-08-11T00:58:59.126Z,1.67
2018-08-11T00:59:11.672Z,1.67
2018-08-11T00:59:24.184Z,1.67
2018-08-11T00:59:36.714Z,1.67
2018-08-11T00:59:49.215Z,1.67
2018-08-11T01:00:01.752Z,1.67
2018-08-11T01:00:14.278Z,1.67
2018-08-11T01:00:26.814Z,1.67
2018-08-11T01:00:39.344Z,1.67
2018-08-11T01:00:51.887Z,1.67
2018-08-11T01:01:04.415Z,1.67
2018-08-11T01:01:16.937Z,1.67
2018-08-11T01:01:29.469Z,1.67
2018-08-11T01:01:41.983Z,1.67
2018-08-11T01:01:54.531Z,1.67
2018-08-11T01:02:07.050Z,1.67
2018-08-11T01:02:19.989Z,1.67
2018-08-11T01:02:33.661Z,1.67
2018-08-11T01:02:46.187Z,1.67
2018-08-11T01:02:58.705Z,1.67
2018-08-11T01:03:11.213Z,1.67
2018-08-11T01:03:23.755Z,1.67
2018-08-11T01:03:36.288Z,1.67
2018-08-11T01:03:48.822Z,1.67
2018-08-11T01:04:01.325Z,1.67
2018-08-11T01:04:13.986Z,1.67
2018-08-11T01:04:26.544Z,1.67
2018-08-11T01:04:39.073Z,1.67
2018-08-11T01:04:51.579Z,1.67
2018-08-11T01:05:04.140Z,1.67
2018-08-11T01:05:16.719Z,1.67
2018-08-11T01:05:29.250Z,1.67
2018-08-11T01:05:41.776Z,1.67
2018-08-11T01:05:54.276Z,1.67
2018-08-11T01:06:06.811Z,1.67
2018-08-11T01:06:19.327Z,1.67
2018-08-11T01:06:31.859Z,1.67
2018-08-11T01:06:44.385Z,1.67
2018-08-11T01:06:57.017Z,1.67
2018-08-11T01:07:09.551Z,1.67
2018-08-11T01:07:22.120Z,1.67
2018-08-11T01:07:34.701Z,1.67
2018-08-11T01:07:47.221Z,1.67
2018-08-11T01:07:59.790Z,1.67
2018-08-11T01:08:12.311Z,1.51
2018-08-11T01:08:24.820Z,1.51
2018-08-11T01:08:37.341Z,1.51
2018-08-11T01:08:49.869Z,1.51
2018-08-11T01:09:02.518Z,1.51
2018-08-11T01:09:15.052Z,1.51
2018-08-11T01:09:27.559Z,1.51
2018-08-11T01:09:40.087Z,1.51
2018-08-11T01:09:52.643Z,1.51
2018-08-11T01:10:05.158Z,1.51
2018-08-11T01:10:17.673Z,1.51
2018-08-11T01:10:30.183Z,1.51
2018-08-11T01:10:42.702Z,1.51
2018-08-11T01:10:55.939Z,1.51
2018-08-11T01:11:09.270Z,1.51
2018-08-11T01:11:21.945Z,1.51
2018-08-11T01:11:34.519Z,1.51
2018-08-11T01:11:47.066Z,1.51
2018-08-11T01:11:59.593Z,1.51
2018-08-11T01:12:12.132Z,1.51
2018-08-11T01:12:24.656Z,1.51
2018-08-11T01:12:37.167Z,1.51
2018-08-11T01:12:49.692Z,1.51
2018-08-11T01:13:02.212Z,1.51
2018-08-11T01:13:14.729Z,1.51
2018-08-11T01:13:27.233Z,1.51
2018-08-11T01:13:39.745Z,1.51
2018-08-11T01:13:52.246Z,1.51
2018-08-11T01:14:04.751Z,1.51
2018-08-11T01:14:17.269Z,1.51
2018-08-11T01:14:29.785Z,1.51
2018-08-11T01:14:42.295Z,1.51
2018-08-11T01:14:54.809Z,1.51
2018-08-11T01:15:07.348Z,1.51
2018-08-11T01:15:19.869Z,1.51
2018-08-11T01:15:32.425Z,1.51
2018-08-11T01:15:44.928Z,1.51
2018-08-11T01:15:57.517Z,1.51
2018-08-11T01:16:10.039Z,1.51
2018-08-11T01:16:22.565Z,1.51
2018-08-11T01:16:35.085Z,1.51
2018-08-11T01:16:47.589Z,1.51
2018-08-11T01:17:00.092Z,1.51
2018-08-11T01:17:12.618Z,1.51
2018-08-11T01:17:25.132Z,1.51
2018-08-11T01:17:37.672Z,1.51
2018-08-11T01:17:50.196Z,1.51
2018-08-11T01:18:02.728Z,1.51
2018-08-11T01:18:15.249Z,1.55
2018-08-11T01:18:27.777Z,1.55
2018-08-11T01:18:40.374Z,1.55
2018-08-11T01:18:52.883Z,1.55
2018-08-11T01:19:05.414Z,1.55
2018-08-11T01:19:17.968Z,1.55
2018-08-11T01:19:30.483Z,1.55
2018-08-11T01:19:43.011Z,1.55
2018-08-11T01:19:55.528Z,1.55
2018-08-11T01:20:08.106Z,1.55
2018-08-11T01:20:20.664Z,1.55
2018-08-11T01:20:33.185Z,1.55
2018-08-11T01:20:45.714Z,1.55
2018-08-11T01:20:58.324Z,1.55
2018-08-11T01:21:10.867Z,1.55
2018-08-11T01:21:23.387Z,1.55
2018-08-11T01:21:35.902Z,1.55
2018-08-11T01:21:48.409Z,1.55
2018-08-11T01:22:01.161Z,1.55
2018-08-11T01:22:13.693Z,1.55
2018-08-11T01:22:26.203Z,1.55
2018-08-11T01:22:38.737Z,1.55
2018-08-11T01:22:51.254Z,1.55
2018-08-11T01:23:03.775Z,1.55
2018-08-11T01:23:16.400Z,1.55
2018-08-11T01:23:28.949Z,1.55
2018-08-11T01:23:41.471Z,1.55
2018-08-11T01:23:53.989Z,1.55
2018-08-11T01:24:06.507Z,1.55
2018-08-11T01:24:19.071Z,1.55
2018-08-11T01:24:31.601Z,1.55
2018-08-11T01:24:44.146Z,1.55
2018-08-11T01:24:56.657Z,1.55
2018-08-11T01:25:09.178Z,1.55
2018-08-11T01:25:21.739Z,1.55
2018-08-11T01:25:34.238Z,1.55
2018-08-11T01:25:46.733Z,1.55
2018-08-11T01:25:59.263Z,1.55
2018-08-11T01:26:11.781Z,1.55
2018-08-11T01:26:24.296Z,1.55
2018-08-11T01:26:36.969Z,1.55
2018-08-11T01:26:49.476Z,1.55
2018-08-11T01:27:01.983Z,1.55
2018-08-11T01:27:14.540Z,1.55
2018-08-11T01:27:27.051Z,1.55
2018-08-11T01:27:39.571Z,1.55
2018-08-11T01:27:52.064Z,1.55
2018-08-11T01:28:04.597Z,1.55
2018-08-11T01:28:17.110Z,1.79
2018-08-11T01:28:29.626Z,1.79
2018-08-11T01:28:42.174Z,1.79
2018-08-11T01:28:54.875Z,1.79
2018-08-11T01:29:07.390Z,1.79
2018-08-11T01:29:19.909Z,1.79
2018-08-11T01:29:32.535Z,1.79
2018-08-11T01:29:45.048Z,1.79
2018-08-11T01:29:57.562Z,1.79
2018-08-11T01:30:10.088Z,1.79
2018-08-11T01:30:22.597Z,1.79
2018-08-11T01:30:35.108Z,1.79
2018-08-11T01:30:47.631Z,1.79
2018-08-11T01:31:00.155Z,1.79
2018-08-11T01:31:12.674Z,1.79
2018-08-11T01:31:25.185Z,1.79
2018-08-11T01:31:37.748Z,1.79
2018-08-11T01:31:50.253Z,1.79
2018-08-11T01:32:02.827Z,1.79
2018-08-11T01:32:15.341Z,1.79
2018-08-11T01:32:27.863Z,1.79
2018-08-11T01:32:40.585Z,1.79
2018-08-11T01:32:53.157Z,1.79
2018-08-11T01:33:05.666Z,1.79
2018-08-11T01:33:18.196Z,1.79
2018-08-11T01:33:30.745Z,1.79
2018-08-11T01:33:43.252Z,1.79
2018-08-11T01:33:55.773Z,1.79
2018-08-11T01:34:08.334Z,1.79
2018-08-11T01:34:20.878Z,1.79
2018-08-11T01:34:33.439Z,1.79
2018-08-11T01:34:45.961Z,1.79
2018-08-11T01:34:58.482Z,1.79
2018-08-11T01:35:10.992Z,1.79
2018-08-11T01:35:23.523Z,1.79
2018-08-11T01:35:36.064Z,1.79
2018-08-11T01:35:48.580Z,1.79
2018-08-11T01:36:01.094Z,1.79
2018-08-11T01:36:13.672Z,1.79
2018-08-11T01:36:26.204Z,1.79
2018-08-11T01:36:38.766Z,1.79
2018-08-11T01:36:51.271Z,1.79
2018-08-11T01:37:03.785Z,1.79
2018-08-11T01:37:16.299Z,1.79
2018-08-11T01:37:28.931Z,1.79
2018-08-11T01:37:41.468Z,1.79
2018-08-11T01:37:54.118Z,1.79
2018-08-11T01:38:06.637Z,1.79
2018-08-11T01:38:19.137Z,1.8
2018-08-11T01:38:31.655Z,1.8
2018-08-11T01:38:44.184Z,1.8
2018-08-11T01:38:56.690Z,1.8
2018-08-11T01:39:09.220Z,1.8
2018-08-11T01:39:21.945Z,1.8
2018-08-11T01:39:34.494Z,1.8
2018-08-11T01:39:46.995Z,1.8
2018-08-11T01:39:59.517Z,1.8
2018-08-11T01:40:12.051Z,1.8
2018-08-11T01:40:24.584Z,1.8
2018-08-11T01:40:37.113Z,1.8
2018-08-11T01:40:49.626Z,1.8
2018-08-11T01:41:02.145Z,1.8
2018-08-11T01:41:14.669Z,1.8
2018-08-11T01:41:27.178Z,1.8
2018-08-11T01:41:39.705Z,1.8
2018-08-11T01:41:52.220Z,1.8
2018-08-11T01:42:04.733Z,1.8
2018-08-11T01:42:17.263Z,1.8
2018-08-11T01:42:29.778Z,1.8
2018-08-11T01:42:42.320Z,1.8
2018-08-11T01:42:54.846Z,1.8
2018-08-11T01:43:07.354Z,1.8
2018-08-11T01:43:19.878Z,1.8
2018-08-11T01:43:32.424Z,1.8
2018-08-11T01:43:44.935Z,1.8
2018-08-11T01:43:57.476Z,1.8
2018-08-11T01:44:10.307Z,1.8
2018-08-11T01:44:24.007Z,1.8
2018-08-11T01:44:36.750Z,1.8
2018-08-11T01:44:49.274Z,1.8
2018-08-11T01:45:01.805Z,1.8
2018-08-11T01:45:14.360Z,1.8
2018-08-11T01:45:27.040Z,1.8
2018-08-11T01:45:39.573Z,1.8
2018-08-11T01:45:52.097Z,1.8
2018-08-11T01:46:04.609Z,1.8
2018-08-11T01:46:17.139Z,1.8
2018-08-11T01:46:29.656Z,1.8
2018-08-11T01:46:42.198Z,1.8
2018-08-11T01:46:54.723Z,1.8
2018-08-11T01:47:07.227Z,1.8
2018-08-11T01:47:19.791Z,1.8
2018-08-11T01:47:32.342Z,1.8
2018-08-11T01:47:44.888Z,1.8
2018-08-11T01:47:57.426Z,1.8
2018-08-11T01:48:09.964Z,1.8
2018-08-11T01:48:22.477Z,1.67
2018-08-11T01:48:34.999Z,1.67
2018-08-11T01:48:47.538Z,1.67
2018-08-11T01:49:00.214Z,1.67
2018-08-11T01:49:12.747Z,1.67
2018-08-11T01:49:25.286Z,1.67
2018-08-11T01:49:37.812Z,1.67
2018-08-11T01:49:50.559Z,1.67
2018-08-11T01:50:03.094Z,1.67
2018-08-11T01:50:15.619Z,1.67
2018-08-11T01:50:28.227Z,1.67
2018-08-11T01:50:40.761Z,1.67
2018-08-11T01:50:53.351Z,1.67
2018-08-11T01:51:05.961Z,1.67
2018-08-11T01:51:18.525Z,1.67
2018-08-11T01:51:31.047Z,1.67
2018-08-11T01:51:43.672Z,1.67
2018-08-11T01:51:56.213Z,1.67
2018-08-11T01:52:08.732Z,1.67
2018-08-11T01:52:21.265Z,1.67
2018-08-11T01:52:33.779Z,1.67
2018-08-11T01:52:46.304Z,1.67
2018-08-11T01:52:58.798Z,1.67
2018-08-11T01:53:11.312Z,1.67
2018-08-11T01:53:23.836Z,1.67
2018-08-11T01:53:36.351Z,1.67
2018-08-11T01:53:48.861Z,1.67
2018-08-11T01:54:01.366Z,1.67
2018-08-11T01:54:13.869Z,1.67
2018-08-11T01:54:26.390Z,1.67
2018-08-11T01:54:38.906Z,1.67
2018-08-11T01:54:51.404Z,1.67
2018-08-11T01:55:03.928Z,1.67
2018-08-11T01:55:16.504Z,1.67
2018-08-11T01:55:28.995Z,1.67
2018-08-11T01:55:41.514Z,1.67
2018-08-11T01:55:54.073Z,1.67
2018-08-11T01:56:06.612Z,1.67
2018-08-11T01:56:19.131Z,1.67
2018-08-11T01:56:31.633Z,1.67
2018-08-11T01:56:44.176Z,1.67
2018-08-11T01:56:56.696Z,1.67
2018-08-11T01:57:09.204Z,1.67
2018-08-11T01:57:21.801Z,1.67
2018-08-11T01:57:34.308Z,1.67
2018-08-11T01:57:46.873Z,1.67
2018-08-11T01:57:59.418Z,1.67
2018-08-11T01:58:11.940Z,1.67
2018-08-11T01:58:24.456Z,1.95
2018-08-11T01:58:36.978Z,1.95
2018-08-11T01:58:49.474Z,1.95
2018-08-11T01:59:02.012Z,1.95
2018-08-11T01:59:14.526Z,1.95
2018-08-11T01:59:27.051Z,1.95
2018-08-11T01:59:39.575Z,1.95
2018-08-11T01:59:52.109Z,1.95
2018-08-11T02:00:04.660Z,1.95
2018-08-11T02:00:17.189Z,1.95
2018-08-11T02:00:29.735Z,1.95
2018-08-11T02:00:42.288Z,1.95
2018-08-11T02:00:54.857Z,1.95
2018-08-11T02:01:07.385Z,1.95
2018-08-11T02:01:19.951Z,1.95
2018-08-11T02:01:32.504Z,1.95
2018-08-11T02:01:45.034Z,1.95
2018-08-11T02:01:57.570Z,1.95
2018-08-11T02:02:10.128Z,1.95
2018-08-11T02:02:22.677Z,1.95
2018-08-11T02:02:35.460Z,1.95
2018-08-11T02:02:47.992Z,1.95
2018-08-11T02:03:00.493Z,1.95
2018-08-11T02:03:13.006Z,1.95
2018-08-11T02:03:25.551Z,1.95
2018-08-11T02:03:38.092Z,1.95
2018-08-11T02:03:50.778Z,1.95
2018-08-11T02:04:03.331Z,1.95
2018-08-11T02:04:16.038Z,1.95
2018-08-11T02:04:28.603Z,1.95
2018-08-11T02:04:41.139Z,1.95
2018-08-11T02:04:53.641Z,1.95
2018-08-11T02:05:06.148Z,1.95
2018-08-11T02:05:18.674Z,1.95
2018-08-11T02:05:31.219Z,1.95
2018-08-11T02:05:43.762Z,1.95
2018-08-11T02:05:56.279Z,1.95
2018-08-11T02:06:08.811Z,1.95
2018-08-11T02:06:21.357Z,1.95
2018-08-11T02:06:33.877Z,1.95
2018-08-11T02:06:46.405Z,1.95
2018-08-11T02:06:58.993Z,1.95
2018-08-11T02:07:11.507Z,1.95
2018-08-11T02:07:24.018Z,1.95
2018-08-11T02:07:36.551Z,1.95
2018-08-11T02:07:49.103Z,1.95
2018-08-11T02:08:01.630Z,1.95
2018-08-11T02:08:14.157Z,1.96
2018-08-11T02:08:26.679Z,1.96
2018-08-11T02:08:39.195Z,1.96
2018-08-11T02:08:51.712Z,1.96
2018-08-11T02:09:04.375Z,1.96
2018-08-11T02:09:16.898Z,1.96
2018-08-11T02:09:29.430Z,1.96
2018-08-11T02:09:42.014Z,1.96
2018-08-11T02:09:54.529Z,1.96
2018-08-11T02:10:07.058Z,1.96
2018-08-11T02:10:19.597Z,1.96
2018-08-11T02:10:32.118Z,1.96
2018-08-11T02:10:44.626Z,1.96
2018-08-11T02:10:57.178Z,1.96
2018-08-11T02:11:09.822Z,1.96
2018-08-11T02:11:23.518Z,1.96
2018-08-11T02:11:36.064Z,1.96
2018-08-11T02:11:48.582Z,1.96
2018-08-11T02:12:01.100Z,1.96
2018-08-11T02:12:13.621Z,1.96
2018-08-11T02:12:26.151Z,1.96
2018-08-11T02:12:38.669Z,1.96
2018-08-11T02:12:51.232Z,1.96
2018-08-11T02:13:03.748Z,1.96
2018-08-11T02:13:16.286Z,1.96
2018-08-11T02:13:28.775Z,1.96
2018-08-11T02:13:41.325Z,1.96
2018-08-11T02:13:53.841Z,1.96
2018-08-11T02:14:06.375Z,1.96
2018-08-11T02:14:18.904Z,1.96
2018-08-11T02:14:31.421Z,1.96
2018-08-11T02:14:43.936Z,1.96
2018-08-11T02:14:56.472Z,1.96
2018-08-11T02:15:09.018Z,1.96
2018-08-11T02:15:21.540Z,1.96
2018-08-11T02:15:34.076Z,1.96
2018-08-11T02:15:46.594Z,1.96
2018-08-11T02:15:59.114Z,1.96
2018-08-11T02:16:11.650Z,1.96
2018-08-11T02:16:24.159Z,1.96
2018-08-11T02:16:36.699Z,1.96
2018-08-11T02:16:49.226Z,1.96
2018-08-11T02:17:01.741Z,1.96
2018-08-11T02:17:14.345Z,1.96
2018-08-11T02:17:26.860Z,1.96
2018-08-11T02:17:39.372Z,1.96
2018-08-11T02:17:51.921Z,1.96
2018-08-11T02:18:04.445Z,1.96
2018-08-11T02:18:16.977Z,1.93
2018-08-11T02:18:29.519Z,1.93
2018-08-11T02:18:42.055Z,1.93
2018-08-11T02:18:54.564Z,1.93
2018-08-11T02:19:07.111Z,1.93
2018-08-11T02:19:19.612Z,1.93
2018-08-11T02:19:32.138Z,1.93
2018-08-11T02:19:44.652Z,1.93
2018-08-11T02:19:57.156Z,1.93
2018-08-11T02:20:09.671Z,1.93
2018-08-11T02:20:22.207Z,1.93
2018-08-11T02:20:34.732Z,1.93
2018-08-11T02:20:47.265Z,1.93
2018-08-11T02:20:59.793Z,1.93
2018-08-11T02:21:12.308Z,1.93
2018-08-11T02:21:24.816Z,1.93
2018-08-11T02:21:37.371Z,1.93
2018-08-11T02:21:49.888Z,1.93
2018-08-11T02:22:02.550Z,1.93
2018-08-11T02:22:15.065Z,1.93
2018-08-11T02:22:27.592Z,1.93
2018-08-11T02:22:40.126Z,1.93
2018-08-11T02:22:52.657Z,1.93
2018-08-11T02:23:05.174Z,1.93
2018-08-11T02:23:17.700Z,1.93
2018-08-11T02:23:30.220Z,1.93
2018-08-11T02:23:42.732Z,1.93
2018-08-11T02:23:55.296Z,1.93
2018-08-11T02:24:07.808Z,1.93
2018-08-11T02:24:20.339Z,1.93
2018-08-11T02:24:32.879Z,1.93
2018-08-11T02:24:45.940Z,1.93
2018-08-11T02:24:59.469Z,1.93
2018-08-11T02:25:12.013Z,1.93
2018-08-11T02:25:24.543Z,1.93
2018-08-11T02:25:37.050Z,1.93
2018-08-11T02:25:49.596Z,1.93
2018-08-11T02:26:02.126Z,1.93
2018-08-11T02:26:14.652Z,1.93
2018-08-11T02:26:27.173Z,1.93
2018-08-11T02:26:39.696Z,1.93
2018-08-11T02:26:52.205Z,1.93
2018-08-11T02:27:05.149Z,1.93
2018-08-11T02:27:17.665Z,1.93
2018-08-11T02:27:30.222Z,1.93
2018-08-11T02:27:42.788Z,1.93
2018-08-11T02:27:55.319Z,1.93
2018-08-11T02:28:07.845Z,1.93
2018-08-11T02:28:20.349Z,1.83
2018-08-11T02:28:32.910Z,1.83
2018-08-11T02:28:45.414Z,1.83
2018-08-11T02:28:58.020Z,1.83
2018-08-11T02:29:10.552Z,1.83
2018-08-11T02:29:23.439Z,1.83
2018-08-11T02:29:35.955Z,1.83
2018-08-11T02:29:48.485Z,1.83
2018-08-11T02:30:01.057Z,1.83
2018-08-11T02:30:13.626Z,1.83
2018-08-11T02:30:26.203Z,1.83
2018-08-11T02:30:38.777Z,1.83
2018-08-11T02:30:51.328Z,1.83
2018-08-11T02:31:03.895Z,1.83
2018-08-11T02:31:16.440Z,1.83
2018-08-11T02:31:28.976Z,1.83
2018-08-11T02:31:41.516Z,1.83
2018-08-11T02:31:54.063Z,1.83
2018-08-11T02:32:06.601Z,1.83
2018-08-11T02:32:19.152Z,1.83
2018-08-11T02:32:31.756Z,1.83
2018-08-11T02:32:44.296Z,1.83
2018-08-11T02:32:56.856Z,1.83
2018-08-11T02:33:09.394Z,1.83
2018-08-11T02:33:21.939Z,1.83
2018-08-11T02:33:34.562Z,1.83
2018-08-11T02:33:47.095Z,1.83
2018-08-11T02:33:59.999Z,1.83
2018-08-11T02:34:12.797Z,1.83
2018-08-11T02:34:26.278Z,1.83
2018-08-11T02:34:39.390Z,1.83
2018-08-11T02:34:51.978Z,1.83
2018-08-11T02:35:04.535Z,1.83
2018-08-11T02:35:17.089Z,1.83
2018-08-11T02:35:29.637Z,1.83
2018-08-11T02:35:42.180Z,1.83
2018-08-11T02:35:54.702Z,1.83
2018-08-11T02:36:07.247Z,1.83
2018-08-11T02:36:19.800Z,1.83
2018-08-11T02:36:32.375Z,1.83
2018-08-11T02:36:44.899Z,1.83
2018-08-11T02:36:57.413Z,1.83
2018-08-11T02:37:09.940Z,1.83
2018-08-11T02:37:22.553Z,1.83
2018-08-11T02:37:35.090Z,1.83
2018-08-11T02:37:47.670Z,1.83
2018-08-11T02:38:00.216Z,1.83
2018-08-11T02:38:12.763Z,1.83
2018-08-11T02:38:25.321Z,1.85
2018-08-11T02:38:37.870Z,1.85
2018-08-11T02:38:50.415Z,1.85
2018-08-11T02:39:02.980Z,1.85
2018-08-11T02:39:15.532Z,1.85
2018-08-11T02:39:28.148Z,1.85
2018-08-11T02:39:40.703Z,1.85
2018-08-11T02:39:53.254Z,1.85
2018-08-11T02:40:05.844Z,1.85
2018-08-11T02:40:18.462Z,1.85
2018-08-11T02:40:30.996Z,1.85
2018-08-11T02:40:43.736Z,1.85
2018-08-11T02:40:56.263Z,1.85
2018-08-11T02:41:08.815Z,1.85
2018-08-11T02:41:21.351Z,1.85
2018-08-11T02:41:33.883Z,1.85
2018-08-11T02:41:46.412Z,1.85
2018-08-11T02:41:58.954Z,1.85
2018-08-11T02:42:11.546Z,1.85
2018-08-11T02:42:24.088Z,1.85
2018-08-11T02:42:36.621Z,1.85
2018-08-11T02:42:49.260Z,1.85
2018-08-11T02:43:01.804Z,1.85
2018-08-11T02:43:14.334Z,1.85
2018-08-11T02:43:26.888Z,1.85
2018-08-11T02:43:39.431Z,1.85
2018-08-11T02:43:51.973Z,1.85
2018-08-11T02:44:04.499Z,1.85
2018-08-11T02:44:17.080Z,1.85
2018-08-11T02:44:29.606Z,1.85
2018-08-11T02:44:42.140Z,1.85
2018-08-11T02:44:54.687Z,1.85
2018-08-11T02:45:07.328Z,1.85
2018-08-11T02:45:19.948Z,1.85
2018-08-11T02:45:32.490Z,1.85
2018-08-11T02:45:45.071Z,1.85
2018-08-11T02:45:57.635Z,1.85
2018-08-11T02:46:10.165Z,1.85
2018-08-11T02:46:22.716Z,1.85
2018-08-11T02:46:35.244Z,1.85
2018-08-11T02:46:47.792Z,1.85
2018-08-11T02:47:00.327Z,1.85
2018-08-11T02:47:12.873Z,1.85
2018-08-11T02:47:25.401Z,1.85
2018-08-11T02:47:37.987Z,1.85
2018-08-11T02:47:50.521Z,1.85
2018-08-11T02:48:03.080Z,1.85